Detall de PIREP

Printer-friendly versionPDF version

[2015/03/14 16:44:00]
Flight IATA:CT0003
Pilot Number:012
Company ICAO:CAT
Aircraft Type:B752/E
PAX:0
Aircraft Registration:CARGO
Departing Airport: LIRF
Destination Airport: LIEA
Alternate Airport:LIEO
Online: VATSIM
Route:ESINO UZ924 KOLUS UM603 MOROB
Flight Level:F280
No Slew and time accel
No pause
Crash detect
Detect pilot in Cockpit between each 30 and 45 minutes
16:44 Zero fuel Weight: 180941 Lbs, Fuel Weight: 14803 Lbs
16:44 VATSIM:LIRF 141620Z 19008KT 9999 FEW030 14/07 Q1020 NOSIG
16:44 VATSIM:LIEA 141620Z 22004KT CAVOK 13/09 Q1018
16:45 Parking Brakes off
16:49 Take-off
16:49 Take off Weight: 195072 Lbs
16:49 Wind: 187º @ 008 Knots Heading: 249º
16:49 POS N41º 48´ 21´´ E012º 15´ 22´´
16:49 Gear Up: 179 Knots
16:49 Flaps:2 at 179 Knots
16:49 Flaps:1 at 191 Knots
16:49 Flaps:0 at 211 Knots
16:57 TOC
16:57 Fuel Weight: 11218 Lb
17:04 Wind:240º@065 Knots Heading: 248º Ground Speed: 386 Knots Altitude 28152 ft
17:05 TOD
17:05 Fuel Weight: 10218 Lb
17:19 Wind:202º@007 Knots Heading: 263º Ground Speed: 259 Knots Altitude 7680 ft
17:27 Gear Down: 180 Knots
17:27 Flaps:1 at 181 Knots
17:27 Flaps:2 at 181 Knots
17:28 Flaps:3 at 164 Knots
17:28 Flaps:4 at 168 Knots
17:29 Flaps:5 at 156 Knots
17:29 Flaps:6 at 152 Knots
17:31 TouchDown:Rate -324 ft/min Speed: 137 Knots
17:31 VATSIM:LIEA 141720Z VRB02KT 9999 SCT048 12/09 Q1018
17:31 Land
17:31 Wind:285º@003 Knots
17:31 Heading: 204º
17:31 Flight Duration: 00:42
17:31 Landing Weight: 189151 Lbs
17:31 POS N40º 37´ 50´´ E008º 17´ 23´´
17:33 Parking brakes on
17:33 Block to Block Duration: 00:48
17:33 Final Fuel: 8044 Lbls
17:33 Spent Fuel: 6759 Lbls
17:33 Flight Length: 212 NM
17:33 TOD Land Length: 117 NM

Exportar CSV

Powered by Drupal - Modified by Danger4k